Time;durP1;ratioP1;P1;durP2;ratioP2;P2;SDS_P1;SDS_P2;PMS_P1;PMS_P2;Temp;Humidity;BMP_temperature;BMP_pressure;BME280_temperature;BME280_humidity;BME280_pressure;Samples;Min_cycle;Max_cycle;Signal;HPM_P1;HPM_P2
2023/08/01 00:00:05;;;;;;;8.18;4.07;;;;;;;;;;4987439;28;20050;-61
2023/08/01 00:02:31;;;;;;;8.13;4.10;;;;;;;;;;4987646;28;20097;-62
2023/08/01 00:04:57;;;;;;;6.93;4.35;;;;;;;;;;4970456;28;20046;-62
2023/08/01 00:07:24;;;;;;;8.00;4.10;;;;;;;;;;4985967;28;20039;-62
2023/08/01 00:09:50;;;;;;;10.35;4.95;;;;;;;;;;4988010;28;20111;-61
2023/08/01 00:12:16;;;;;;;8.93;4.68;;;;;;;;;;4972155;28;20050;-62
2023/08/01 00:14:42;;;;;;;7.30;4.65;;;;;;;;;;4985496;28;20056;-62
2023/08/01 00:17:08;;;;;;;10.15;4.95;;;;;;;;;;4969531;28;20042;-62
2023/08/01 00:19:34;;;;;;;8.18;3.50;;;;;;;;;;4987183;28;20042;-62
2023/08/01 00:22:06;;;;;;;8.87;3.70;;;;;;;;;;4976209;28;20061;-60
2023/08/01 00:24:38;;;;;;;9.60;4.47;;;;;;;;;;4972947;28;20108;-62
2023/08/01 00:27:04;;;;;;;10.05;4.30;;;;;;;;;;4994207;28;20561;-62
2023/08/01 00:29:30;;;;;;;9.02;4.47;;;;;;;;;;4971814;28;20057;-61
2023/08/01 00:31:57;;;;;;;5.90;3.65;;;;;;;;;;4994662;28;20096;-61
2023/08/01 00:34:29;;;;;;;6.38;3.28;;;;;;;;;;4979343;28;20116;-62
2023/08/01 00:36:55;;;;;;;8.60;4.13;;;;;;;;;;4987656;28;20121;-62
2023/08/01 00:39:21;;;;;;;5.03;3.33;;;;;;;;;;4987464;28;20125;-62
2023/08/01 00:41:47;;;;;;;5.85;3.25;;;;;;;;;;4975293;28;20037;-62
2023/08/01 00:44:13;;;;;;;5.78;3.30;;;;;;;;;;4990149;28;20419;-62
2023/08/01 00:46:39;;;;;;;7.28;3.40;;;;;;;;;;4993765;28;20041;-62
2023/08/01 00:49:08;;;;;;;8.27;3.53;;;;;;;;;;5001141;28;20563;-62
2023/08/01 00:51:34;;;;;;;6.55;3.50;;;;;;;;;;4995605;28;20096;-62
2023/08/01 00:54:00;;;;;;;7.18;2.95;;;;;;;;;;4991789;28;20046;-62
2023/08/01 00:56:26;;;;;;;7.55;3.67;;;;;;;;;;4986909;28;20042;-62
2023/08/01 00:58:53;;;;;;;8.05;3.90;;;;;;;;;;4986689;28;20064;-62
2023/08/01 01:01:19;;;;;;;6.82;3.13;;;;;;;;;;4994294;28;20042;-62
2023/08/01 01:03:45;;;;;;;9.90;2.95;;;;;;;;;;4970037;28;20043;-62
2023/08/01 01:06:25;;;;;;;10.25;3.70;;;;;;;;;;4989969;28;20057;-63
2023/08/01 01:08:51;;;;;;;10.38;3.53;;;;;;;;;;4990367;28;20057;-62
2023/08/01 01:11:17;;;;;;;6.82;3.65;;;;;;;;;;4998840;28;20536;-62
2023/08/01 01:13:43;;;;;;;10.25;3.65;;;;;;;;;;4976247;28;20531;-62
2023/08/01 01:16:09;;;;;;;7.47;3.88;;;;;;;;;;4995327;28;20048;-62
2023/08/01 01:18:35;;;;;;;7.25;3.38;;;;;;;;;;5000838;28;20053;-62
2023/08/01 01:21:02;;;;;;;9.18;3.53;;;;;;;;;;4993724;28;20035;-62
2023/08/01 01:23:29;;;;;;;5.97;3.55;;;;;;;;;;4990231;28;20274;-62
2023/08/01 01:25:56;;;;;;;5.80;2.83;;;;;;;;;;4988059;28;20444;-62
2023/08/01 01:28:22;;;;;;;7.47;3.60;;;;;;;;;;4989024;28;20169;-62
2023/08/01 01:30:49;;;;;;;10.80;3.80;;;;;;;;;;4989824;28;20089;-62
2023/08/01 01:33:16;;;;;;;6.10;3.10;;;;;;;;;;4985994;28;20072;-62
2023/08/01 01:35:42;;;;;;;9.80;3.90;;;;;;;;;;4994130;28;20128;-64
2023/08/01 01:38:08;;;;;;;6.82;3.35;;;;;;;;;;4990297;28;20540;-62
2023/08/01 01:40:35;;;;;;;7.68;3.65;;;;;;;;;;4989652;28;20084;-62
2023/08/01 01:43:01;;;;;;;10.25;3.90;;;;;;;;;;4974154;28;20133;-62
2023/08/01 01:45:28;;;;;;;7.55;3.70;;;;;;;;;;4989438;28;20470;-63
2023/08/01 01:47:54;;;;;;;9.65;3.50;;;;;;;;;;4989405;28;20137;-62
2023/08/01 01:50:20;;;;;;;5.82;3.22;;;;;;;;;;4989665;28;20046;-62
2023/08/01 01:52:47;;;;;;;6.32;3.47;;;;;;;;;;4989713;28;20506;-62
2023/08/01 01:55:14;;;;;;;8.00;3.50;;;;;;;;;;4989165;28;20050;-62
2023/08/01 01:57:40;;;;;;;6.50;3.85;;;;;;;;;;4989228;28;20061;-62
2023/08/01 02:00:10;;;;;;;7.38;3.17;;;;;;;;;;4972508;28;20092;-62
2023/08/01 02:02:36;;;;;;;10.23;4.50;;;;;;;;;;4989648;28;20053;-62
2023/08/01 02:05:06;;;;;;;5.30;3.13;;;;;;;;;;4989859;28;20050;-61
2023/08/01 02:07:33;;;;;;;9.85;4.00;;;;;;;;;;4989087;28;20038;-62
2023/08/01 02:10:00;;;;;;;8.13;3.45;;;;;;;;;;4997833;28;20041;-63
2023/08/01 02:12:26;;;;;;;10.00;4.32;;;;;;;;;;4997508;28;20394;-62
2023/08/01 02:14:52;;;;;;;8.68;4.22;;;;;;;;;;4989154;28;20101;-62
2023/08/01 02:17:18;;;;;;;8.35;3.67;;;;;;;;;;4970556;28;20039;-62
2023/08/01 02:19:44;;;;;;;8.43;3.90;;;;;;;;;;4989633;28;20034;-62
2023/08/01 02:22:10;;;;;;;7.38;3.08;;;;;;;;;;4989145;28;20129;-62
2023/08/01 02:24:36;;;;;;;8.50;3.70;;;;;;;;;;4972411;28;20060;-62
2023/08/01 02:27:03;;;;;;;6.57;3.47;;;;;;;;;;4965204;28;20046;-62
2023/08/01 02:29:29;;;;;;;10.88;3.90;;;;;;;;;;4988680;28;20584;-62
2023/08/01 02:31:56;;;;;;;10.55;4.43;;;;;;;;;;4989194;28;20472;-62
2023/08/01 02:34:22;;;;;;;7.03;4.43;;;;;;;;;;4989020;28;20050;-62
2023/08/01 02:36:48;;;;;;;7.47;3.92;;;;;;;;;;4989831;28;20374;-62
2023/08/01 02:39:14;;;;;;;11.18;4.25;;;;;;;;;;4989372;28;20466;-62
2023/08/01 02:41:40;;;;;;;8.80;4.45;;;;;;;;;;4989574;28;20118;-62
2023/08/01 02:44:06;;;;;;;9.27;4.47;;;;;;;;;;4986637;28;20046;-62
2023/08/01 02:46:33;;;;;;;6.32;4.18;;;;;;;;;;4989468;28;20031;-62
2023/08/01 02:48:59;;;;;;;9.45;4.38;;;;;;;;;;4990481;28;20057;-62
2023/08/01 02:51:25;;;;;;;6.68;4.00;;;;;;;;;;4988760;28;20105;-61
2023/08/01 02:53:51;;;;;;;8.88;4.97;;;;;;;;;;4991110;28;20050;-62
2023/08/01 02:56:17;;;;;;;11.48;4.55;;;;;;;;;;4986418;28;20041;-62
2023/08/01 02:58:43;;;;;;;6.30;4.00;;;;;;;;;;4968375;28;20434;-62
2023/08/01 03:01:10;;;;;;;8.73;4.80;;;;;;;;;;4987336;28;20129;-62
2023/08/01 03:03:36;;;;;;;10.18;4.32;;;;;;;;;;4974465;28;20037;-62
2023/08/01 03:06:03;;;;;;;10.63;4.68;;;;;;;;;;4988299;28;20057;-62
2023/08/01 03:08:29;;;;;;;8.48;3.95;;;;;;;;;;4972966;28;20333;-62
2023/08/01 03:10:55;;;;;;;9.68;4.25;;;;;;;;;;4994846;28;20126;-62
2023/08/01 03:13:21;;;;;;;6.63;3.58;;;;;;;;;;4991778;28;20427;-61
2023/08/01 03:15:47;;;;;;;9.32;3.35;;;;;;;;;;4991869;28;20092;-63
2023/08/01 03:18:13;;;;;;;8.07;3.42;;;;;;;;;;4989332;28;20069;-62
2023/08/01 03:20:40;;;;;;;7.90;3.15;;;;;;;;;;4985725;28;20128;-62
2023/08/01 03:23:06;;;;;;;6.30;2.92;;;;;;;;;;4989037;28;20101;-62
2023/08/01 03:25:32;;;;;;;6.53;2.60;;;;;;;;;;4989978;28;20148;-62
2023/08/01 03:27:59;;;;;;;5.68;2.15;;;;;;;;;;4988335;28;20128;-62
2023/08/01 03:30:25;;;;;;;6.85;3.38;;;;;;;;;;4988193;28;20063;-62
2023/08/01 03:32:52;;;;;;;6.13;2.45;;;;;;;;;;4980468;28;20041;-62
2023/08/01 03:35:18;;;;;;;12.90;3.03;;;;;;;;;;4985983;28;20049;-60
2023/08/01 03:37:44;;;;;;;5.38;2.17;;;;;;;;;;4990008;28;20045;-62
2023/08/01 03:40:10;;;;;;;5.07;2.25;;;;;;;;;;4990426;28;20482;-61
2023/08/01 03:42:37;;;;;;;7.95;2.00;;;;;;;;;;4989013;28;20041;-62
2023/08/01 03:45:04;;;;;;;6.85;2.40;;;;;;;;;;4985676;28;20057;-62
2023/08/01 03:47:30;;;;;;;7.03;2.20;;;;;;;;;;4985864;28;20184;-61
2023/08/01 03:49:57;;;;;;;4.00;1.60;;;;;;;;;;4985204;28;20054;-61
2023/08/01 03:52:23;;;;;;;12.98;2.60;;;;;;;;;;4988390;28;20136;-61
2023/08/01 03:54:49;;;;;;;7.82;2.45;;;;;;;;;;4988489;28;20066;-62
2023/08/01 03:57:15;;;;;;;8.00;2.00;;;;;;;;;;4950813;28;20501;-62
2023/08/01 03:59:42;;;;;;;6.07;2.20;;;;;;;;;;4967945;28;20287;-62
2023/08/01 04:02:08;;;;;;;5.22;2.00;;;;;;;;;;4968018;28;20034;-62
2023/08/01 04:04:34;;;;;;;5.68;1.90;;;;;;;;;;4968036;28;20047;-61
2023/08/01 04:07:00;;;;;;;8.00;2.38;;;;;;;;;;4985927;28;20097;-61
2023/08/01 04:09:26;;;;;;;5.90;2.25;;;;;;;;;;4985479;28;20100;-62
2023/08/01 04:11:53;;;;;;;4.93;2.22;;;;;;;;;;4985761;28;20042;-61
2023/08/01 04:14:19;;;;;;;5.53;1.83;;;;;;;;;;4987084;28;20141;-62
2023/08/01 04:16:45;;;;;;;5.07;1.85;;;;;;;;;;4970787;28;20503;-61
2023/08/01 04:19:11;;;;;;;6.05;1.98;;;;;;;;;;4987463;28;20457;-61
2023/08/01 04:21:37;;;;;;;5.03;2.35;;;;;;;;;;4986702;28;20205;-61
2023/08/01 04:24:03;;;;;;;6.88;1.73;;;;;;;;;;4987971;28;20129;-61
2023/08/01 04:26:29;;;;;;;4.40;1.60;;;;;;;;;;4966692;28;20149;-62
2023/08/01 04:29:01;;;;;;;3.35;2.00;;;;;;;;;;4984674;28;20061;-61
2023/08/01 04:31:27;;;;;;;5.50;1.77;;;;;;;;;;4984978;28;20048;-61
2023/08/01 04:33:53;;;;;;;4.72;2.00;;;;;;;;;;4986525;28;20043;-61
2023/08/01 04:36:19;;;;;;;4.50;2.00;;;;;;;;;;4984970;28;20038;-61
2023/08/01 04:38:46;;;;;;;3.35;2.13;;;;;;;;;;4985643;28;20034;-61
2023/08/01 04:41:12;;;;;;;5.20;2.10;;;;;;;;;;4984088;28;20086;-60
2023/08/01 04:43:38;;;;;;;6.03;2.05;;;;;;;;;;4985215;28;20042;-61
2023/08/01 04:46:04;;;;;;;8.27;3.10;;;;;;;;;;4985872;28;20035;-61
2023/08/01 04:48:30;;;;;;;4.57;2.60;;;;;;;;;;4972437;28;20034;-61
2023/08/01 04:50:56;;;;;;;4.75;1.92;;;;;;;;;;4966988;28;20038;-61
2023/08/01 04:53:22;;;;;;;5.22;2.08;;;;;;;;;;4989031;28;20065;-62
2023/08/01 04:55:49;;;;;;;5.10;2.08;;;;;;;;;;4986305;28;20128;-61
2023/08/01 04:58:15;;;;;;;4.45;2.38;;;;;;;;;;4970315;28;20039;-61
2023/08/01 05:00:41;;;;;;;6.00;2.38;;;;;;;;;;4970859;28;20049;-61
2023/08/01 05:03:07;;;;;;;3.85;2.47;;;;;;;;;;4990945;28;20042;-62
2023/08/01 05:05:34;;;;;;;4.88;2.55;;;;;;;;;;4984671;28;20398;-61
2023/08/01 05:08:00;;;;;;;6.13;3.25;;;;;;;;;;4988051;28;20042;-61
2023/08/01 05:10:26;;;;;;;5.65;2.88;;;;;;;;;;4984850;28;20046;-61
2023/08/01 05:12:52;;;;;;;7.82;2.60;;;;;;;;;;4965299;28;20042;-62
2023/08/01 05:15:18;;;;;;;4.75;3.15;;;;;;;;;;4978951;28;20042;-61
2023/08/01 05:17:45;;;;;;;8.10;2.88;;;;;;;;;;4984844;28;20070;-62
2023/08/01 05:20:11;;;;;;;8.55;3.20;;;;;;;;;;4983061;28;20073;-61
2023/08/01 05:22:37;;;;;;;8.48;3.75;;;;;;;;;;4983697;28;20163;-62
2023/08/01 05:25:04;;;;;;;4.63;2.47;;;;;;;;;;4986323;28;20053;-61
2023/08/01 05:27:31;;;;;;;7.22;3.08;;;;;;;;;;4965552;28;20376;-62
2023/08/01 05:29:57;;;;;;;7.90;2.88;;;;;;;;;;4988881;28;20045;-61
2023/08/01 05:32:26;;;;;;;7.00;2.42;;;;;;;;;;4985533;28;20169;-62
2023/08/01 05:34:52;;;;;;;5.78;2.80;;;;;;;;;;4984708;28;20042;-62
2023/08/01 05:37:18;;;;;;;4.68;2.88;;;;;;;;;;4984126;28;20049;-62
2023/08/01 05:39:44;;;;;;;4.97;2.80;;;;;;;;;;4986986;28;20057;-61
2023/08/01 05:42:10;;;;;;;5.10;2.88;;;;;;;;;;4965926;28;20151;-62
2023/08/01 05:44:36;;;;;;;4.05;2.80;;;;;;;;;;4982268;28;20038;-62
2023/08/01 05:47:03;;;;;;;8.30;2.70;;;;;;;;;;4986358;28;20049;-62
2023/08/01 05:49:29;;;;;;;5.68;2.47;;;;;;;;;;4985853;28;20100;-62
2023/08/01 05:51:56;;;;;;;5.85;1.63;;;;;;;;;;4946711;28;20042;-62
2023/08/01 05:54:22;;;;;;;6.15;1.55;;;;;;;;;;4987981;28;20046;-61
2023/08/01 05:56:48;;;;;;;4.57;1.73;;;;;;;;;;4983795;28;20120;-61
2023/08/01 05:59:14;;;;;;;2.95;1.30;;;;;;;;;;4986725;28;20046;-61
2023/08/01 06:01:40;;;;;;;4.07;1.38;;;;;;;;;;4969527;28;20551;-62
2023/08/01 06:04:07;;;;;;;5.68;1.10;;;;;;;;;;4953650;28;20042;-61
2023/08/01 06:06:33;;;;;;;3.88;1.67;;;;;;;;;;4965935;28;20091;-62
2023/08/01 06:09:00;;;;;;;2.28;1.38;;;;;;;;;;4987828;28;20149;-62
2023/08/01 06:11:26;;;;;;;4.22;0.90;;;;;;;;;;4986643;28;20161;-62
2023/08/01 06:13:52;;;;;;;5.30;1.38;;;;;;;;;;4987031;28;20057;-62
2023/08/01 06:16:19;;;;;;;4.38;1.70;;;;;;;;;;4989450;28;20043;-61
2023/08/01 06:18:45;;;;;;;5.40;2.28;;;;;;;;;;4993573;28;20042;-61
2023/08/01 06:21:12;;;;;;;5.43;1.63;;;;;;;;;;4987973;28;20903;-61
2023/08/01 06:23:38;;;;;;;5.55;1.55;;;;;;;;;;4973079;28;20145;-61
2023/08/01 06:26:04;;;;;;;3.47;1.55;;;;;;;;;;4982984;28;20042;-61
2023/08/01 06:28:30;;;;;;;7.88;1.60;;;;;;;;;;4985492;28;20401;-61
2023/08/01 06:30:57;;;;;;;5.50;1.65;;;;;;;;;;4987095;28;20038;-61
2023/08/01 06:33:23;;;;;;;5.53;1.80;;;;;;;;;;4986887;28;20058;-62
2023/08/01 06:35:49;;;;;;;5.60;2.15;;;;;;;;;;4972468;28;20286;-61
2023/08/01 06:38:15;;;;;;;5.22;1.85;;;;;;;;;;4981323;28;20038;-61
2023/08/01 06:40:42;;;;;;;4.93;2.28;;;;;;;;;;4986377;28;20038;-61
2023/08/01 06:43:08;;;;;;;4.25;2.25;;;;;;;;;;4985778;28;20048;-61
2023/08/01 06:45:34;;;;;;;4.38;2.22;;;;;;;;;;4967457;28;20073;-62
2023/08/01 06:48:00;;;;;;;4.85;1.65;;;;;;;;;;4971268;28;20093;-62
2023/08/01 06:50:29;;;;;;;6.30;1.80;;;;;;;;;;4988260;28;20053;-61
2023/08/01 06:52:55;;;;;;;5.93;3.13;;;;;;;;;;4983443;28;20429;-62
2023/08/01 06:55:21;;;;;;;2.83;1.60;;;;;;;;;;4986984;28;20045;-62
2023/08/01 06:57:48;;;;;;;5.57;2.47;;;;;;;;;;4981541;28;20042;-61
2023/08/01 07:00:14;;;;;;;10.00;2.20;;;;;;;;;;4982201;28;20446;-62
2023/08/01 07:02:40;;;;;;;7.20;2.72;;;;;;;;;;4969341;28;20050;-62
2023/08/01 07:05:06;;;;;;;10.90;2.60;;;;;;;;;;4988709;28;20217;-62
2023/08/01 07:07:32;;;;;;;3.40;1.48;;;;;;;;;;4980476;28;20042;-61
2023/08/01 07:09:59;;;;;;;4.35;1.88;;;;;;;;;;4986696;28;20053;-62
2023/08/01 07:12:25;;;;;;;4.60;1.95;;;;;;;;;;4983589;28;20122;-61
2023/08/01 07:14:51;;;;;;;4.90;1.95;;;;;;;;;;4983858;28;20533;-60
2023/08/01 07:17:18;;;;;;;4.30;1.60;;;;;;;;;;4982861;28;20046;-61
2023/08/01 07:19:45;;;;;;;10.20;1.95;;;;;;;;;;4981362;28;20062;-61
2023/08/01 07:22:11;;;;;;;3.72;1.63;;;;;;;;;;4982908;28;20501;-61
2023/08/01 07:24:42;;;;;;;5.18;1.70;;;;;;;;;;4984965;28;20382;-62
2023/08/01 07:27:12;;;;;;;5.88;2.10;;;;;;;;;;4951650;28;20046;-62
2023/08/01 07:29:38;;;;;;;5.47;2.33;;;;;;;;;;4985457;28;20038;-62
2023/08/01 07:32:05;;;;;;;8.55;2.80;;;;;;;;;;4989515;28;20046;-62
2023/08/01 07:34:31;;;;;;;8.15;2.35;;;;;;;;;;4982367;28;20047;-62
2023/08/01 07:36:58;;;;;;;3.90;1.73;;;;;;;;;;4981131;28;20042;-62
2023/08/01 07:39:26;;;;;;;8.05;1.88;;;;;;;;;;4983764;28;20560;-62
2023/08/01 07:41:56;;;;;;;6.20;2.85;;;;;;;;;;4984421;28;20358;-62
2023/08/01 07:44:22;;;;;;;5.90;2.35;;;;;;;;;;4982081;28;20038;-62
2023/08/01 07:46:48;;;;;;;6.40;2.75;;;;;;;;;;4985801;28;20148;-61
2023/08/01 07:49:17;;;;;;;5.60;2.50;;;;;;;;;;4981210;28;20093;-61
2023/08/01 07:51:43;;;;;;;5.35;1.85;;;;;;;;;;4984810;28;20168;-62
2023/08/01 07:54:09;;;;;;;6.90;2.00;;;;;;;;;;4982293;28;20055;-61
2023/08/01 07:56:35;;;;;;;5.68;1.60;;;;;;;;;;4984249;28;20113;-62
2023/08/01 07:59:01;;;;;;;6.22;1.92;;;;;;;;;;4979318;28;20050;-62
2023/08/01 08:01:27;;;;;;;4.45;1.70;;;;;;;;;;4981720;28;20038;-61
2023/08/01 08:03:53;;;;;;;7.90;3.05;;;;;;;;;;4980503;28;20115;-63
2023/08/01 08:06:21;;;;;;;8.27;2.10;;;;;;;;;;4986081;28;20090;-62
2023/08/01 08:08:47;;;;;;;6.28;1.85;;;;;;;;;;4984655;28;20465;-62
2023/08/01 08:11:13;;;;;;;7.85;1.85;;;;;;;;;;4982156;28;20050;-63
2023/08/01 08:13:42;;;;;;;5.13;2.33;;;;;;;;;;4979888;28;20390;-61
2023/08/01 08:16:09;;;;;;;5.35;2.65;;;;;;;;;;4982032;28;20034;-62
2023/08/01 08:18:35;;;;;;;4.80;1.95;;;;;;;;;;4985653;28;20026;-61
2023/08/01 08:21:06;;;;;;;5.27;2.10;;;;;;;;;;4963164;28;20061;-62
2023/08/01 08:23:33;;;;;;;6.05;2.25;;;;;;;;;;4982615;28;20305;-62
2023/08/01 08:25:59;;;;;;;8.10;2.08;;;;;;;;;;4981931;28;20100;-62
2023/08/01 08:28:29;;;;;;;3.28;1.50;;;;;;;;;;4981977;28;20041;-62
2023/08/01 08:30:56;;;;;;;3.50;1.35;;;;;;;;;;4965908;28;20045;-62
2023/08/01 08:33:22;;;;;;;4.28;1.70;;;;;;;;;;4964355;28;20154;-62
2023/08/01 08:35:48;;;;;;;2.20;1.58;;;;;;;;;;4983053;28;20042;-62
2023/08/01 08:38:14;;;;;;;4.30;1.80;;;;;;;;;;4966722;28;20509;-62
2023/08/01 08:40:41;;;;;;;3.80;1.70;;;;;;;;;;4980290;28;20548;-62
2023/08/01 08:43:08;;;;;;;3.75;1.85;;;;;;;;;;4951070;28;20050;-62
2023/08/01 08:45:35;;;;;;;3.63;1.73;;;;;;;;;;4958024;28;20042;-62
2023/08/01 08:48:09;;;;;;;5.47;1.85;;;;;;;;;;4987866;28;20129;-62
2023/08/01 08:50:36;;;;;;;4.32;1.33;;;;;;;;;;4980932;28;20494;-62
2023/08/01 08:53:02;;;;;;;7.68;1.58;;;;;;;;;;4982535;28;20045;-62
2023/08/01 08:55:31;;;;;;;5.00;1.70;;;;;;;;;;4983478;28;20089;-62
2023/08/01 08:57:57;;;;;;;2.75;1.80;;;;;;;;;;4982218;28;20065;-61
2023/08/01 09:00:24;;;;;;;3.88;1.25;;;;;;;;;;4989906;28;20061;-61
2023/08/01 09:02:50;;;;;;;5.07;1.95;;;;;;;;;;4964690;28;20460;-61
2023/08/01 09:05:16;;;;;;;3.13;1.80;;;;;;;;;;4988593;28;20171;-61
2023/08/01 09:07:46;;;;;;;11.70;3.03;;;;;;;;;;4983393;28;20478;-61
2023/08/01 09:10:12;;;;;;;4.45;1.70;;;;;;;;;;4979791;28;20065;-62
2023/08/01 09:12:38;;;;;;;6.65;2.22;;;;;;;;;;4982723;28;20311;-62
2023/08/01 09:15:05;;;;;;;8.43;2.13;;;;;;;;;;4983944;28;20567;-62
2023/08/01 09:17:31;;;;;;;5.82;2.03;;;;;;;;;;4980597;28;20042;-62
2023/08/01 09:20:05;;;;;;;3.45;1.95;;;;;;;;;;4985014;28;20141;-62
2023/08/01 09:22:42;;;;;;;7.25;3.15;;;;;;;;;;4984364;28;20034;-62
2023/08/01 09:25:09;;;;;;;8.02;2.20;;;;;;;;;;4991222;28;20046;-63
2023/08/01 09:27:36;;;;;;;5.63;1.98;;;;;;;;;;4983662;28;20049;-62
2023/08/01 09:30:11;;;;;;;6.88;2.35;;;;;;;;;;4967150;28;20405;-62
2023/08/01 09:32:38;;;;;;;6.00;2.13;;;;;;;;;;4982357;28;20081;-62
2023/08/01 09:35:04;;;;;;;4.95;1.70;;;;;;;;;;4986755;28;20433;-62
2023/08/01 09:37:43;;;;;;;6.43;1.70;;;;;;;;;;4984354;28;20603;-62
2023/08/01 09:40:10;;;;;;;7.57;2.30;;;;;;;;;;4984090;28;20057;-62
2023/08/01 09:42:39;;;;;;;8.27;2.95;;;;;;;;;;4985083;28;20050;-64
2023/08/01 09:45:12;;;;;;;6.80;2.33;;;;;;;;;;4984498;28;20086;-63
2023/08/01 09:47:38;;;;;;;;;;;;;;;;;;4989186;28;20281;-63
2023/08/01 09:50:04;;;;;;;6.68;2.53;;;;;;;;;;4983285;28;20016;-61
2023/08/01 09:52:31;;;;;;;7.38;1.85;;;;;;;;;;4987777;28;20065;-61
2023/08/01 09:54:57;;;;;;;5.35;2.53;;;;;;;;;;4985221;28;20130;-62
2023/08/01 09:57:24;;;;;;;5.07;2.30;;;;;;;;;;4986496;28;20077;-62
2023/08/01 09:59:51;;;;;;;5.82;2.10;;;;;;;;;;4984718;28;20042;-62
2023/08/01 10:02:20;;;;;;;4.10;2.05;;;;;;;;;;4986709;28;20500;-62
2023/08/01 10:04:47;;;;;;;5.47;2.10;;;;;;;;;;4967980;28;20042;-62
2023/08/01 10:07:14;;;;;;;6.18;1.77;;;;;;;;;;4989411;28;20069;-61
2023/08/01 10:09:41;;;;;;;5.65;2.03;;;;;;;;;;4984438;28;20058;-61
2023/08/01 10:12:08;;;;;;;5.03;2.03;;;;;;;;;;4975576;28;20350;-61
2023/08/01 10:14:34;;;;;;;2.67;1.35;;;;;;;;;;4970425;28;20122;-61
2023/08/01 10:17:02;;;;;;;5.15;2.20;;;;;;;;;;4991418;28;20100;-61
2023/08/01 10:19:31;;;;;;;4.63;2.40;;;;;;;;;;4987828;28;20497;-66
2023/08/01 10:21:57;;;;;;;6.40;2.03;;;;;;;;;;4989603;28;20035;-62
2023/08/01 10:24:25;;;;;;;6.05;2.20;;;;;;;;;;4986484;28;20045;-61
2023/08/01 10:26:51;;;;;;;5.55;1.95;;;;;;;;;;4981443;28;20046;-61
2023/08/01 10:29:17;;;;;;;6.53;1.98;;;;;;;;;;4985412;28;20049;-62
2023/08/01 10:31:53;;;;;;;3.00;1.52;;;;;;;;;;4987532;28;20069;-61
2023/08/01 10:34:21;;;;;;;3.63;1.63;;;;;;;;;;4991763;28;20585;-62
2023/08/01 10:36:54;;;;;;;5.30;2.28;;;;;;;;;;4985115;28;20501;-62
2023/08/01 10:39:24;;;;;;;5.32;1.63;;;;;;;;;;4987860;28;20112;-62
2023/08/01 10:41:58;;;;;;;5.70;1.50;;;;;;;;;;4964792;28;20405;-61
2023/08/01 10:44:24;;;;;;;7.85;1.73;;;;;;;;;;4986681;28;20046;-61
2023/08/01 10:46:51;;;;;;;6.97;2.28;;;;;;;;;;4965226;28;20038;-61
2023/08/01 10:49:19;;;;;;;5.07;1.77;;;;;;;;;;4987915;28;20050;-62
2023/08/01 10:51:45;;;;;;;3.25;1.52;;;;;;;;;;4987917;28;20873;-61
2023/08/01 10:54:24;;;;;;;4.70;2.65;;;;;;;;;;4986577;28;20051;-61
2023/08/01 10:56:54;;;;;;;6.90;1.50;;;;;;;;;;4985288;28;20039;-61
2023/08/01 10:59:21;;;;;;;4.18;1.70;;;;;;;;;;4982875;28;20084;-61
2023/08/01 11:01:48;;;;;;;4.28;1.73;;;;;;;;;;4984449;28;20095;-61
2023/08/01 11:04:18;;;;;;;3.83;1.50;;;;;;;;;;4969381;28;20097;-61
2023/08/01 11:06:45;;;;;;;4.72;1.98;;;;;;;;;;4983082;28;20046;-61
2023/08/01 11:09:17;;;;;;;5.50;1.85;;;;;;;;;;4982130;28;20084;-61
2023/08/01 11:11:44;;;;;;;9.07;2.05;;;;;;;;;;4965526;28;20093;-62
2023/08/01 11:14:13;;;;;;;5.88;1.50;;;;;;;;;;4983716;28;20054;-61
2023/08/01 11:16:39;;;;;;;6.63;1.58;;;;;;;;;;4983666;28;20117;-61
2023/08/01 11:19:05;;;;;;;4.70;1.85;;;;;;;;;;4982876;28;20714;-61
2023/08/01 11:21:36;;;;;;;3.78;2.03;;;;;;;;;;4981801;28;20042;-61
2023/08/01 11:24:07;;;;;;;4.45;1.65;;;;;;;;;;4982660;28;20057;-62
2023/08/01 11:26:33;;;;;;;4.25;1.80;;;;;;;;;;4985264;28;20146;-62
2023/08/01 11:29:03;;;;;;;5.80;1.83;;;;;;;;;;4983508;28;20132;-61
2023/08/01 11:31:30;;;;;;;5.75;2.38;;;;;;;;;;4981893;28;20041;-62
2023/08/01 11:33:57;;;;;;;10.32;3.13;;;;;;;;;;4982470;28;20545;-61
2023/08/01 11:36:27;;;;;;;4.57;2.50;;;;;;;;;;4979967;28;20136;-61
2023/08/01 11:38:54;;;;;;;4.40;2.55;;;;;;;;;;4967147;28;20038;-61
2023/08/01 11:41:20;;;;;;;8.32;3.15;;;;;;;;;;4978064;28;20462;-62
2023/08/01 11:43:46;;;;;;;10.60;2.58;;;;;;;;;;4988638;28;20041;-62
2023/08/01 11:46:13;;;;;;;8.18;2.15;;;;;;;;;;4980316;28;20038;-62
2023/08/01 11:48:39;;;;;;;3.67;1.95;;;;;;;;;;4967266;28;20046;-61
2023/08/01 11:51:05;;;;;;;5.15;2.17;;;;;;;;;;4980860;28;20096;-62
2023/08/01 11:53:38;;;;;;;6.13;2.17;;;;;;;;;;4985894;28;20049;-61
2023/08/01 11:56:04;;;;;;;19.10;2.35;;;;;;;;;;4980676;28;20054;-61
2023/08/01 11:58:31;;;;;;;6.35;1.95;;;;;;;;;;4983859;28;20034;-61
2023/08/01 12:01:03;;;;;;;8.20;2.92;;;;;;;;;;4980929;28;20082;-61
2023/08/01 12:03:29;;;;;;;5.60;2.60;;;;;;;;;;4981190;28;20590;-61
2023/08/01 12:06:08;;;;;;;5.43;2.53;;;;;;;;;;4959551;28;20050;-61
2023/08/01 12:08:34;;;;;;;5.63;2.00;;;;;;;;;;4979293;28;20505;-61
2023/08/01 12:11:01;;;;;;;7.40;3.05;;;;;;;;;;4977753;28;20065;-61
2023/08/01 12:13:27;;;;;;;6.85;2.60;;;;;;;;;;4981092;28;20042;-62
2023/08/01 12:15:56;;;;;;;7.63;2.42;;;;;;;;;;4978308;28;20072;-62
2023/08/01 12:18:23;;;;;;;5.75;2.65;;;;;;;;;;4976488;28;20224;-60
2023/08/01 12:20:49;;;;;;;5.82;2.72;;;;;;;;;;4979864;28;20034;-61
2023/08/01 12:23:15;;;;;;;6.57;2.20;;;;;;;;;;4984059;28;20087;-62
2023/08/01 12:25:41;;;;;;;4.82;2.10;;;;;;;;;;4980180;28;20058;-62
2023/08/01 12:28:07;;;;;;;6.03;2.67;;;;;;;;;;4982837;28;20065;-62
2023/08/01 12:30:33;;;;;;;8.80;2.28;;;;;;;;;;4980047;28;20030;-62
2023/08/01 12:33:03;;;;;;;6.90;2.13;;;;;;;;;;4985394;28;20042;-62
2023/08/01 12:35:29;;;;;;;4.10;1.65;;;;;;;;;;4979121;28;20086;-61
2023/08/01 12:37:55;;;;;;;6.85;2.03;;;;;;;;;;4965455;28;20521;-62
2023/08/01 12:40:21;;;;;;;6.40;2.20;;;;;;;;;;4986517;28;20038;-61
2023/08/01 12:42:47;;;;;;;4.82;1.85;;;;;;;;;;4946907;28;20631;-62
2023/08/01 12:45:13;;;;;;;5.25;1.60;;;;;;;;;;4962641;28;20046;-62
2023/08/01 12:47:40;;;;;;;5.10;1.63;;;;;;;;;;4981575;28;20039;-62
2023/08/01 12:50:06;;;;;;;2.75;1.70;;;;;;;;;;4985372;28;20046;-62
2023/08/01 12:52:32;;;;;;;4.78;2.45;;;;;;;;;;4981946;28;20045;-62
2023/08/01 12:54:58;;;;;;;6.43;2.22;;;;;;;;;;4981603;28;20059;-61
2023/08/01 12:57:24;;;;;;;6.38;2.58;;;;;;;;;;4977405;28;20042;-61
2023/08/01 12:59:51;;;;;;;8.20;2.20;;;;;;;;;;4982407;28;20046;-61
2023/08/01 13:02:17;;;;;;;3.72;2.30;;;;;;;;;;4993028;28;20046;-62
2023/08/01 13:04:43;;;;;;;5.25;2.20;;;;;;;;;;4989942;28;20542;-62
2023/08/01 13:07:09;;;;;;;11.25;3.45;;;;;;;;;;4987833;28;20038;-62
2023/08/01 13:09:35;;;;;;;6.07;1.90;;;;;;;;;;4983882;28;20042;-63
2023/08/01 13:12:01;;;;;;;5.97;1.88;;;;;;;;;;4985930;28;20140;-63
2023/08/01 13:14:28;;;;;;;5.78;2.13;;;;;;;;;;4987663;28;20837;-63
2023/08/01 13:16:54;;;;;;;4.28;1.67;;;;;;;;;;4989149;28;20529;-62
2023/08/01 13:19:20;;;;;;;4.03;1.90;;;;;;;;;;4988899;28;20030;-62
2023/08/01 13:21:46;;;;;;;5.75;2.08;;;;;;;;;;4986912;28;20039;-62
2023/08/01 13:24:12;;;;;;;6.57;1.90;;;;;;;;;;4990285;28;20259;-62
2023/08/01 13:26:38;;;;;;;8.57;2.50;;;;;;;;;;4985431;28;20397;-62
2023/08/01 13:29:05;;;;;;;3.42;1.90;;;;;;;;;;4987497;28;20101;-62
2023/08/01 13:31:31;;;;;;;5.40;1.88;;;;;;;;;;4987259;28;20635;-62
2023/08/01 13:33:57;;;;;;;3.25;1.98;;;;;;;;;;4988665;28;20125;-63
2023/08/01 13:36:24;;;;;;;3.25;1.63;;;;;;;;;;4967328;28;20050;-62
2023/08/01 13:38:50;;;;;;;4.30;1.73;;;;;;;;;;4971279;28;20550;-62
2023/08/01 13:41:16;;;;;;;4.00;1.55;;;;;;;;;;4988882;28;20085;-62
2023/08/01 13:43:42;;;;;;;4.55;1.65;;;;;;;;;;4990105;28;20128;-62
2023/08/01 13:46:19;;;;;;;3.83;1.50;;;;;;;;;;4988388;28;20046;-62
2023/08/01 13:48:46;;;;;;;4.85;1.75;;;;;;;;;;4987927;28;20050;-63
2023/08/01 13:51:12;;;;;;;8.82;2.38;;;;;;;;;;4975283;28;20042;-62
2023/08/01 13:53:40;;;;;;;6.32;2.20;;;;;;;;;;4992751;28;20107;-62
2023/08/01 13:56:10;;;;;;;16.25;2.45;;;;;;;;;;4989382;28;20039;-63
2023/08/01 13:58:37;;;;;;;6.60;2.20;;;;;;;;;;4989090;28;20062;-62
2023/08/01 14:01:04;;;;;;;4.82;2.10;;;;;;;;;;4973931;28;20146;-62
2023/08/01 14:03:32;;;;;;;4.95;2.10;;;;;;;;;;4987620;28;20030;-62
2023/08/01 14:06:08;;;;;;;3.75;1.95;;;;;;;;;;4973167;28;20054;-63
2023/08/01 14:08:34;;;;;;;5.45;2.00;;;;;;;;;;4970542;28;20065;-63
2023/08/01 14:11:01;;;;;;;4.78;2.33;;;;;;;;;;4989821;28;20431;-63
2023/08/01 14:13:28;;;;;;;4.95;2.28;;;;;;;;;;4989472;28;20513;-62
2023/08/01 14:15:54;;;;;;;2.35;1.38;;;;;;;;;;4989678;28;20043;-62
2023/08/01 14:18:20;;;;;;;7.43;1.40;;;;;;;;;;4988978;28;20541;-62
2023/08/01 14:20:46;;;;;;;4.13;1.35;;;;;;;;;;4989200;28;20038;-62
2023/08/01 14:23:13;;;;;;;1.88;1.27;;;;;;;;;;4988841;28;20370;-62
2023/08/01 14:25:39;;;;;;;3.72;1.30;;;;;;;;;;4970030;28;20069;-63
2023/08/01 14:28:05;;;;;;;2.72;1.48;;;;;;;;;;4989214;28;20411;-63
2023/08/01 14:30:31;;;;;;;5.80;1.85;;;;;;;;;;4990100;28;20472;-63
2023/08/01 14:33:05;;;;;;;4.00;1.40;;;;;;;;;;4989423;28;20473;-63
2023/08/01 14:35:31;;;;;;;3.92;1.40;;;;;;;;;;4983404;28;20059;-63
2023/08/01 14:37:57;;;;;;;2.80;1.23;;;;;;;;;;4989216;28;20030;-63
2023/08/01 14:40:24;;;;;;;3.42;1.40;;;;;;;;;;4984986;28;20050;-62